Time;durP1;ratioP1;P1;durP2;ratioP2;P2;SDS_P1;SDS_P2;PMS_P1;PMS_P2;Temp;Humidity;BMP_temperature;BMP_pressure;BME280_temperature;BME280_humidity;BME280_pressure;Samples;Min_cycle;Max_cycle;Signal;HPM_P1;HPM_P2
2023/03/11 00:09:49;;;;;;;28.40;20.70;;;;;;;;;;4998931;28;20224;-83
2023/03/11 00:12:14;;;;;;;29.73;19.57;;;;;;;;;;5007694;28;20665;-83
2023/03/11 00:14:40;;;;;;;30.07;19.30;;;;;;;;;;5006059;28;20191;-82
2023/03/11 00:17:06;;;;;;;24.60;19.30;;;;;;;;;;5007677;28;20321;-82
2023/03/11 00:19:33;;;;;;;28.00;19.37;;;;;;;;;;5006640;28;20201;-83
2023/03/11 00:22:01;;;;;;;30.63;19.33;;;;;;;;;;4988893;28;20191;-82
2023/03/11 00:24:27;;;;;;;28.03;19.20;;;;;;;;;;5006050;28;20191;-83
2023/03/11 00:26:53;;;;;;;26.20;18.10;;;;;;;;;;5005152;28;20191;-82
2023/03/11 00:29:19;;;;;;;26.83;18.63;;;;;;;;;;5005672;28;20222;-82
2023/03/11 00:31:45;;;;;;;27.33;18.93;;;;;;;;;;5012951;28;20677;-83
2023/03/11 00:34:11;;;;;;;29.73;18.77;;;;;;;;;;4987471;28;20332;-83
2023/03/11 00:36:37;;;;;;;25.60;17.73;;;;;;;;;;5005266;28;20190;-82
2023/03/11 00:39:05;;;;;;;28.23;19.80;;;;;;;;;;5005476;28;20607;-83
2023/03/11 00:41:32;;;;;;;25.40;18.20;;;;;;;;;;5005992;28;20301;-82
2023/03/11 00:43:58;;;;;;;27.87;18.87;;;;;;;;;;5052377;28;20275;-83
2023/03/11 00:46:24;;;;;;;30.40;20.97;;;;;;;;;;5087124;28;20192;-84
2023/03/11 00:48:51;;;;;;;25.10;19.17;;;;;;;;;;5086697;28;20203;-82
2023/03/11 00:51:17;;;;;;;26.67;19.37;;;;;;;;;;5088875;28;20649;-81
2023/03/11 00:53:43;;;;;;;28.03;19.77;;;;;;;;;;5088300;28;20184;-83
2023/03/11 00:56:10;;;;;;;23.27;17.97;;;;;;;;;;5074462;28;20184;-83
2023/03/11 00:58:37;;;;;;;29.47;20.13;;;;;;;;;;5078130;28;20177;-81
2023/03/11 01:01:14;;;;;;;27.37;19.50;;;;;;;;;;5085951;28;20175;-83
2023/03/11 01:03:40;;;;;;;29.57;20.13;;;;;;;;;;5089543;28;20325;-82
2023/03/11 01:06:07;;;;;;;27.20;19.87;;;;;;;;;;5104443;28;20186;-82
2023/03/11 01:08:33;;;;;;;26.77;19.37;;;;;;;;;;5087871;28;20307;-82
2023/03/11 01:10:59;;;;;;;26.17;19.87;;;;;;;;;;5090021;28;20598;-83
2023/03/11 01:13:25;;;;;;;26.80;19.27;;;;;;;;;;5087398;28;20194;-84
2023/03/11 01:15:52;;;;;;;28.97;20.00;;;;;;;;;;5104824;28;20664;-82
2023/03/11 01:18:19;;;;;;;28.07;20.43;;;;;;;;;;5083895;28;20237;-82
2023/03/11 01:20:45;;;;;;;27.50;20.10;;;;;;;;;;5086290;28;20181;-82
2023/03/11 01:23:12;;;;;;;27.73;19.50;;;;;;;;;;5076950;28;20631;-82
2023/03/11 01:25:38;;;;;;;34.17;22.13;;;;;;;;;;5083603;28;20195;-83
2023/03/11 01:28:05;;;;;;;29.17;20.17;;;;;;;;;;5088764;28;20185;-83
2023/03/11 01:30:31;;;;;;;32.53;20.83;;;;;;;;;;5088952;28;20195;-83
2023/03/11 01:32:58;;;;;;;25.10;19.37;;;;;;;;;;5089240;28;20222;-84
2023/03/11 01:35:25;;;;;;;28.47;20.77;;;;;;;;;;5073900;28;20661;-82
2023/03/11 01:37:52;;;;;;;27.50;20.47;;;;;;;;;;5086460;28;20183;-83
2023/03/11 01:40:24;;;;;;;28.67;21.07;;;;;;;;;;5080747;28;20185;-82
2023/03/11 01:42:51;;;;;;;29.07;20.27;;;;;;;;;;5085726;28;20620;-82
2023/03/11 01:45:36;;;;;;;27.00;20.57;;;;;;;;;;5088269;28;20181;-82
2023/03/11 01:48:03;;;;;;;28.80;20.40;;;;;;;;;;5086657;28;20180;-83
2023/03/11 01:50:31;;;;;;;26.13;18.90;;;;;;;;;;5077872;28;20181;-81
2023/03/11 01:52:57;;;;;;;23.70;17.83;;;;;;;;;;5084925;28;20229;-82
2023/03/11 01:55:24;;;;;;;27.47;19.00;;;;;;;;;;5078770;28;20177;-84
2023/03/11 01:57:51;;;;;;;22.30;17.10;;;;;;;;;;5078818;28;20500;-82
2023/03/11 02:00:17;;;;;;;22.33;16.63;;;;;;;;;;5079473;28;20545;-83
2023/03/11 02:02:53;;;;;;;24.43;16.73;;;;;;;;;;5088615;28;20183;-82
2023/03/11 02:05:20;;;;;;;22.97;15.33;;;;;;;;;;5087645;28;20180;-84
2023/03/11 02:07:46;;;;;;;19.87;15.07;;;;;;;;;;5087759;28;20206;-81
2023/03/11 02:10:13;;;;;;;19.07;14.27;;;;;;;;;;5085304;28;20215;-83
2023/03/11 02:12:40;;;;;;;20.23;14.97;;;;;;;;;;5082591;28;20211;-83
2023/03/11 02:15:06;;;;;;;20.30;15.07;;;;;;;;;;5074848;28;20249;-83
2023/03/11 02:17:33;;;;;;;21.63;14.00;;;;;;;;;;5083486;28;20725;-84
2023/03/11 02:20:11;;;;;;;21.10;15.33;;;;;;;;;;5055243;28;20190;-82
2023/03/11 02:22:37;;;;;;;18.63;13.83;;;;;;;;;;5068210;28;20653;-83
2023/03/11 02:25:22;;;;;;;19.93;14.13;;;;;;;;;;5069972;28;20580;-83
2023/03/11 02:27:49;;;;;;;17.47;13.50;;;;;;;;;;5069692;28;20634;-82
2023/03/11 02:36:36;;;;;;;19.00;12.73;;;;;;;;;;4941761;29;20209;-82
2023/03/11 02:39:02;;;;;;;15.73;12.77;;;;;;;;;;4930525;29;20201;-83
2023/03/11 02:41:30;;;;;;;20.80;13.47;;;;;;;;;;4937947;29;20190;-82
2023/03/11 02:43:56;;;;;;;18.23;13.13;;;;;;;;;;4936008;29;20200;-83
2023/03/11 02:46:22;;;;;;;18.17;12.27;;;;;;;;;;4936901;29;20622;-82
2023/03/11 02:48:48;;;;;;;19.77;12.93;;;;;;;;;;4938330;29;20409;-82
2023/03/11 02:51:14;;;;;;;16.20;12.57;;;;;;;;;;4931741;29;20192;-82
2023/03/11 02:53:44;;;;;;;17.33;12.50;;;;;;;;;;4932604;28;20288;-83
2023/03/11 02:56:10;;;;;;;19.77;13.07;;;;;;;;;;4942467;28;20178;-83
2023/03/11 02:58:36;;;;;;;20.07;13.23;;;;;;;;;;4946087;29;20764;-82
2023/03/11 03:01:02;;;;;;;17.87;13.27;;;;;;;;;;4939684;28;20652;-83
2023/03/11 03:03:28;;;;;;;20.33;13.27;;;;;;;;;;4933707;29;20189;-82
2023/03/11 03:05:54;;;;;;;16.53;11.73;;;;;;;;;;4931061;29;20237;-83
2023/03/11 03:08:21;;;;;;;16.20;12.17;;;;;;;;;;4936098;29;20212;-82
2023/03/11 03:10:47;;;;;;;17.33;12.83;;;;;;;;;;4935128;29;20194;-82
2023/03/11 03:13:13;;;;;;;16.70;12.10;;;;;;;;;;4989944;28;20185;-83
2023/03/11 03:15:39;;;;;;;15.73;12.13;;;;;;;;;;5068181;28;20267;-83
2023/03/11 03:18:05;;;;;;;17.97;12.67;;;;;;;;;;5085123;28;20310;-84
2023/03/11 03:20:31;;;;;;;18.47;12.97;;;;;;;;;;5092468;28;20186;-83
2023/03/11 03:22:57;;;;;;;17.33;12.77;;;;;;;;;;5091030;28;20194;-83
2023/03/11 03:25:23;;;;;;;17.67;11.93;;;;;;;;;;5091031;28;20188;-82
2023/03/11 03:27:49;;;;;;;19.27;12.37;;;;;;;;;;5107818;28;20239;-83
2023/03/11 03:30:16;;;;;;;14.77;10.77;;;;;;;;;;5108151;28;20211;-82
2023/03/11 03:32:42;;;;;;;18.10;12.40;;;;;;;;;;5091720;28;20277;-83
2023/03/11 03:35:08;;;;;;;16.40;11.53;;;;;;;;;;5107238;28;20255;-82
2023/03/11 03:37:35;;;;;;;17.87;11.90;;;;;;;;;;5087832;28;20939;-82
2023/03/11 03:40:02;;;;;;;17.00;11.83;;;;;;;;;;5081266;28;20595;-82
2023/03/11 03:42:28;;;;;;;17.60;11.77;;;;;;;;;;5107116;28;20172;-81
2023/03/11 03:44:54;;;;;;;15.77;11.80;;;;;;;;;;5077911;28;20184;-83
2023/03/11 03:47:20;;;;;;;16.07;11.73;;;;;;;;;;5109839;28;20267;-83
2023/03/11 03:49:46;;;;;;;16.40;12.20;;;;;;;;;;5105488;28;21235;-84
2023/03/11 03:52:13;;;;;;;17.47;13.33;;;;;;;;;;5087831;28;20183;-82
2023/03/11 03:54:40;;;;;;;15.67;11.13;;;;;;;;;;5090062;28;20215;-83
2023/03/11 03:57:06;;;;;;;14.73;11.67;;;;;;;;;;5107514;28;20180;-83
2023/03/11 03:59:33;;;;;;;21.40;13.30;;;;;;;;;;5085658;28;20187;-82
2023/03/11 04:01:59;;;;;;;15.40;11.20;;;;;;;;;;5090284;28;20560;-83
2023/03/11 04:04:25;;;;;;;18.13;11.70;;;;;;;;;;5090064;28;20180;-82
2023/03/11 04:06:51;;;;;;;15.30;11.80;;;;;;;;;;5106956;28;20167;-81
2023/03/11 04:09:18;;;;;;;16.73;12.00;;;;;;;;;;5099299;28;20563;-84
2023/03/11 04:11:44;;;;;;;16.73;11.67;;;;;;;;;;5094236;28;20171;-83
2023/03/11 04:14:10;;;;;;;18.97;12.03;;;;;;;;;;5091066;28;20176;-82
2023/03/11 04:16:36;;;;;;;14.63;11.13;;;;;;;;;;5104735;28;20187;-83
2023/03/11 04:19:03;;;;;;;13.90;11.23;;;;;;;;;;5085799;28;20591;-83
2023/03/11 04:21:30;;;;;;;17.30;9.87;;;;;;;;;;5086620;28;20184;-83
2023/03/11 04:23:57;;;;;;;13.20;9.97;;;;;;;;;;5087272;28;20172;-82
2023/03/11 04:26:23;;;;;;;12.73;9.80;;;;;;;;;;5090330;28;20201;-84
2023/03/11 04:28:50;;;;;;;14.67;10.57;;;;;;;;;;5104909;28;21699;-83
2023/03/11 04:31:16;;;;;;;12.30;9.27;;;;;;;;;;5088802;28;20187;-82
2023/03/11 04:33:42;;;;;;;11.13;8.90;;;;;;;;;;5090666;28;20188;-82
2023/03/11 04:36:09;;;;;;;13.60;9.10;;;;;;;;;;5107640;28;20250;-83
2023/03/11 04:38:35;;;;;;;12.30;8.97;;;;;;;;;;5089759;28;20178;-82
2023/03/11 04:41:02;;;;;;;13.33;9.13;;;;;;;;;;5087409;28;20187;-83
2023/03/11 04:43:28;;;;;;;13.90;8.53;;;;;;;;;;5083565;28;20229;-83
2023/03/11 04:45:54;;;;;;;11.47;7.73;;;;;;;;;;5095711;28;20171;-83
2023/03/11 04:48:20;;;;;;;10.97;7.93;;;;;;;;;;5087528;28;20493;-83
2023/03/11 04:50:47;;;;;;;11.63;8.40;;;;;;;;;;5089674;28;20207;-84
2023/03/11 04:53:13;;;;;;;10.53;7.47;;;;;;;;;;5087444;28;20313;-81
2023/03/11 04:55:39;;;;;;;10.70;7.90;;;;;;;;;;5104449;28;20183;-82
2023/03/11 04:58:05;;;;;;;9.50;7.33;;;;;;;;;;5085156;28;20183;-83
2023/03/11 05:00:31;;;;;;;14.80;7.73;;;;;;;;;;5085801;28;20251;-82
2023/03/11 05:02:57;;;;;;;10.20;7.07;;;;;;;;;;5090708;28;20641;-83
2023/03/11 05:05:23;;;;;;;10.30;7.43;;;;;;;;;;5089278;28;20834;-84
2023/03/11 05:07:49;;;;;;;9.57;7.20;;;;;;;;;;5088618;28;20184;-83
2023/03/11 05:10:21;;;;;;;10.17;6.93;;;;;;;;;;5081445;28;20427;-84
2023/03/11 05:12:47;;;;;;;9.23;6.80;;;;;;;;;;5106823;28;20184;-83
2023/03/11 05:15:13;;;;;;;9.47;6.57;;;;;;;;;;5090151;28;20637;-84
2023/03/11 05:17:39;;;;;;;9.27;6.57;;;;;;;;;;5076963;28;20224;-83
2023/03/11 05:20:06;;;;;;;9.33;6.67;;;;;;;;;;5080197;28;20184;-82
2023/03/11 05:22:33;;;;;;;8.80;6.00;;;;;;;;;;5099695;28;20175;-83
2023/03/11 05:24:59;;;;;;;9.43;6.73;;;;;;;;;;5104012;28;20180;-83
2023/03/11 05:27:25;;;;;;;10.73;6.43;;;;;;;;;;5108100;28;20671;-83
2023/03/11 05:29:51;;;;;;;10.03;6.57;;;;;;;;;;5085535;28;20199;-82
2023/03/11 05:32:18;;;;;;;7.27;6.17;;;;;;;;;;5076741;28;20207;-83
2023/03/11 05:34:44;;;;;;;7.20;6.10;;;;;;;;;;5076239;28;20181;-83
2023/03/11 05:37:10;;;;;;;10.47;6.90;;;;;;;;;;5077984;28;20183;-84
2023/03/11 05:39:39;;;;;;;7.93;6.17;;;;;;;;;;5106347;28;20187;-84
2023/03/11 05:42:05;;;;;;;8.87;6.53;;;;;;;;;;5100874;28;20172;-83
2023/03/11 05:44:32;;;;;;;8.67;6.50;;;;;;;;;;5086231;28;20182;-84
2023/03/11 05:46:58;;;;;;;8.97;6.77;;;;;;;;;;5079361;28;22086;-82
2023/03/11 05:49:24;;;;;;;9.13;6.60;;;;;;;;;;5086606;28;20222;-82
2023/03/11 05:51:50;;;;;;;7.77;6.73;;;;;;;;;;5080380;28;20184;-82
2023/03/11 05:54:17;;;;;;;9.27;6.17;;;;;;;;;;5072668;28;20276;-83
2023/03/11 05:56:45;;;;;;;8.43;6.27;;;;;;;;;;5103259;28;20220;-84
2023/03/11 05:59:13;;;;;;;9.10;6.90;;;;;;;;;;5089001;28;20192;-82
2023/03/11 06:01:39;;;;;;;7.77;6.13;;;;;;;;;;5104407;28;20184;-84
2023/03/11 06:04:05;;;;;;;7.70;6.13;;;;;;;;;;5088140;28;20520;-84
2023/03/11 06:06:31;;;;;;;8.80;6.57;;;;;;;;;;5088616;28;20627;-84
2023/03/11 06:08:57;;;;;;;9.83;6.73;;;;;;;;;;5092113;28;20717;-82
2023/03/11 06:11:24;;;;;;;9.03;6.87;;;;;;;;;;5107277;28;20191;-84
2023/03/11 06:13:54;;;;;;;8.20;7.07;;;;;;;;;;5087420;28;20188;-83
2023/03/11 06:16:20;;;;;;;8.50;6.60;;;;;;;;;;5080521;28;20758;-83
2023/03/11 06:18:46;;;;;;;9.40;7.20;;;;;;;;;;5094497;28;20588;-83
2023/03/11 06:21:17;;;;;;;9.07;7.20;;;;;;;;;;5096179;28;20180;-82
2023/03/11 06:23:43;;;;;;;9.97;7.90;;;;;;;;;;5088253;28;20176;-83
2023/03/11 06:26:12;;;;;;;8.50;7.33;;;;;;;;;;5089601;28;20661;-83
2023/03/11 06:28:38;;;;;;;8.83;7.13;;;;;;;;;;5110660;28;20737;-82
2023/03/11 06:31:08;;;;;;;12.50;8.00;;;;;;;;;;5092479;28;20530;-84
2023/03/11 06:33:34;;;;;;;10.13;7.93;;;;;;;;;;5090860;28;20644;-84
2023/03/11 06:36:01;;;;;;;10.67;7.93;;;;;;;;;;5109594;28;20526;-82
2023/03/11 06:38:27;;;;;;;8.60;7.70;;;;;;;;;;5091923;28;20552;-82
2023/03/11 06:40:53;;;;;;;10.53;8.37;;;;;;;;;;5091725;28;20265;-83
2023/03/11 06:43:21;;;;;;;9.27;8.27;;;;;;;;;;5092328;28;20637;-84
2023/03/11 06:45:47;;;;;;;9.07;7.83;;;;;;;;;;5103389;28;20187;-82
2023/03/11 06:48:13;;;;;;;8.83;7.90;;;;;;;;;;5093301;28;20209;-82
2023/03/11 06:50:39;;;;;;;10.53;8.20;;;;;;;;;;5089918;28;20195;-82
2023/03/11 06:53:06;;;;;;;9.27;8.37;;;;;;;;;;5079437;28;20264;-83
2023/03/11 06:55:57;;;;;;;9.50;8.50;;;;;;;;;;5098962;28;20188;-83
2023/03/11 06:58:23;;;;;;;12.00;8.73;;;;;;;;;;5082447;28;20179;-82
2023/03/11 07:00:49;;;;;;;9.70;8.67;;;;;;;;;;5089180;28;20221;-83
2023/03/11 07:03:15;;;;;;;9.77;8.70;;;;;;;;;;5089348;28;20271;-83
2023/03/11 07:05:41;;;;;;;9.27;8.23;;;;;;;;;;5087699;28;20645;-82
2023/03/11 07:08:07;;;;;;;11.00;9.03;;;;;;;;;;5106335;28;20280;-83
2023/03/11 07:10:34;;;;;;;11.13;9.60;;;;;;;;;;5086936;28;20612;-83
2023/03/11 07:13:01;;;;;;;10.40;9.40;;;;;;;;;;5077419;28;20967;-82
2023/03/11 07:15:27;;;;;;;11.33;10.13;;;;;;;;;;5078330;28;20175;-82
2023/03/11 07:17:53;;;;;;;12.03;10.40;;;;;;;;;;5075042;28;20214;-83
2023/03/11 07:20:19;;;;;;;13.27;10.33;;;;;;;;;;5057406;28;20555;-82
2023/03/11 07:22:45;;;;;;;11.27;10.07;;;;;;;;;;5074458;28;20198;-83
2023/03/11 07:25:11;;;;;;;11.23;10.13;;;;;;;;;;5055679;28;20185;-83
2023/03/11 07:27:37;;;;;;;12.20;11.00;;;;;;;;;;5058763;28;20258;-84
2023/03/11 07:30:04;;;;;;;14.10;11.73;;;;;;;;;;5060352;28;20659;-83
2023/03/11 07:32:30;;;;;;;13.30;11.33;;;;;;;;;;5060466;28;20591;-84
2023/03/11 07:34:56;;;;;;;14.80;12.20;;;;;;;;;;5056870;28;20182;-84
2023/03/11 07:37:22;;;;;;;14.10;12.60;;;;;;;;;;5056033;28;20573;-84
2023/03/11 07:40:23;;;;;;;13.73;12.40;;;;;;;;;;5056348;28;20587;-83
2023/03/11 07:42:49;;;;;;;13.77;12.33;;;;;;;;;;5052672;28;20205;-83
2023/03/11 07:45:15;;;;;;;13.40;12.20;;;;;;;;;;5053884;28;20185;-83
2023/03/11 07:47:41;;;;;;;13.93;12.53;;;;;;;;;;5053979;28;20732;-83
2023/03/11 07:50:07;;;;;;;15.97;14.27;;;;;;;;;;5055321;28;20209;-83
2023/03/11 07:52:33;;;;;;;14.90;13.30;;;;;;;;;;5053396;28;20188;-82
2023/03/11 07:55:00;;;;;;;13.80;12.30;;;;;;;;;;5049480;28;20185;-83
2023/03/11 07:57:26;;;;;;;13.83;12.53;;;;;;;;;;5072511;28;20243;-83
2023/03/11 07:59:52;;;;;;;16.87;14.23;;;;;;;;;;5062318;28;20824;-84
2023/03/11 08:02:18;;;;;;;14.73;13.33;;;;;;;;;;5057999;28;20224;-82
2023/03/11 08:04:45;;;;;;;16.10;14.60;;;;;;;;;;5049176;28;20185;-83
2023/03/11 08:07:11;;;;;;;16.53;14.90;;;;;;;;;;5051025;28;20189;-83
2023/03/11 08:09:37;;;;;;;17.40;15.50;;;;;;;;;;5051234;28;20695;-83
2023/03/11 08:12:03;;;;;;;17.23;15.53;;;;;;;;;;5051894;28;20268;-83
2023/03/11 08:14:29;;;;;;;16.77;15.17;;;;;;;;;;5056003;28;20240;-83
2023/03/11 08:16:55;;;;;;;15.77;14.27;;;;;;;;;;5052834;28;20232;-83
2023/03/11 08:19:21;;;;;;;15.60;14.17;;;;;;;;;;5075507;28;20231;-83
2023/03/11 08:21:47;;;;;;;16.90;14.37;;;;;;;;;;5058258;28;20525;-83
2023/03/11 08:24:14;;;;;;;15.53;14.13;;;;;;;;;;5066074;28;20698;-83
2023/03/11 08:26:40;;;;;;;18.20;16.23;;;;;;;;;;5066024;28;20428;-83
2023/03/11 08:29:06;;;;;;;18.47;16.77;;;;;;;;;;5065267;28;20201;-82
2023/03/11 08:31:33;;;;;;;20.83;18.83;;;;;;;;;;5063557;28;20194;-82
2023/03/11 08:34:09;;;;;;;21.40;19.23;;;;;;;;;;5061338;28;20211;-82
2023/03/11 08:36:38;;;;;;;21.87;19.73;;;;;;;;;;5065403;28;20226;-82
2023/03/11 08:39:05;;;;;;;20.67;18.67;;;;;;;;;;5067226;28;20195;-82
2023/03/11 08:41:31;;;;;;;20.13;18.23;;;;;;;;;;5060033;28;20193;-80
2023/03/11 08:43:57;;;;;;;20.43;18.47;;;;;;;;;;5062287;28;20255;-82
2023/03/11 08:46:27;;;;;;;19.57;17.67;;;;;;;;;;5063236;28;20256;-81
2023/03/11 08:48:53;;;;;;;17.40;15.80;;;;;;;;;;5060171;28;20253;-83
2023/03/11 08:51:20;;;;;;;17.13;15.53;;;;;;;;;;5067481;28;20211;-81
2023/03/11 08:53:46;;;;;;;15.97;14.37;;;;;;;;;;5055981;28;20178;-81
2023/03/11 08:56:12;;;;;;;16.13;14.20;;;;;;;;;;5070808;28;20240;-82
2023/03/11 08:58:38;;;;;;;14.00;12.60;;;;;;;;;;5062854;28;20177;-82
2023/03/11 09:01:05;;;;;;;13.30;12.10;;;;;;;;;;5064167;28;20197;-82
2023/03/11 09:03:34;;;;;;;13.43;11.27;;;;;;;;;;5062707;28;20173;-81
2023/03/11 09:06:01;;;;;;;12.93;11.67;;;;;;;;;;5063514;28;20196;-82
2023/03/11 09:08:27;;;;;;;15.03;13.47;;;;;;;;;;5063614;28;20457;-82
2023/03/11 09:10:53;;;;;;;15.03;13.43;;;;;;;;;;5065834;28;20185;-82
2023/03/11 09:13:20;;;;;;;15.83;14.17;;;;;;;;;;5058073;28;20592;-82
2023/03/11 09:15:47;;;;;;;14.60;13.07;;;;;;;;;;5067412;28;20169;-81
2023/03/11 09:18:14;;;;;;;16.17;14.53;;;;;;;;;;5062142;28;20263;-82
2023/03/11 09:20:40;;;;;;;15.30;13.80;;;;;;;;;;5063101;28;20181;-82
2023/03/11 09:23:06;;;;;;;17.47;15.67;;;;;;;;;;5058858;28;20649;-82
2023/03/11 09:25:32;;;;;;;26.03;22.00;;;;;;;;;;5068956;28;20219;-80
2023/03/11 09:27:58;;;;;;;28.40;25.40;;;;;;;;;;5082630;28;20231;-81
2023/03/11 09:30:25;;;;;;;36.97;27.40;;;;;;;;;;5085128;28;20220;-80
2023/03/11 09:32:51;;;;;;;35.83;27.27;;;;;;;;;;5083293;28;20172;-81
2023/03/11 09:35:17;;;;;;;39.27;28.37;;;;;;;;;;5076852;28;21192;-82
2023/03/11 09:37:43;;;;;;;40.03;28.60;;;;;;;;;;5065684;28;20185;-81
2023/03/11 09:40:12;;;;;;;40.53;28.73;;;;;;;;;;5054064;28;20188;-80
2023/03/11 09:42:57;;;;;;;34.57;23.57;;;;;;;;;;5074174;28;20240;-79
2023/03/11 09:45:31;;;;;;;33.50;23.20;;;;;;;;;;5078228;28;20178;-82
2023/03/11 09:48:00;;;;;;;34.30;23.60;;;;;;;;;;5058199;28;20621;-80
2023/03/11 09:50:34;;;;;;;33.73;23.40;;;;;;;;;;5060376;28;20287;-80
2023/03/11 09:53:18;;;;;;;34.23;23.20;;;;;;;;;;5057827;28;20260;-78
2023/03/11 09:55:51;;;;;;;30.20;21.47;;;;;;;;;;5061628;28;20182;-79
2023/03/11 09:58:36;;;;;;;32.77;21.87;;;;;;;;;;5063732;28;20197;-80
2023/03/11 10:01:08;;;;;;;27.83;20.03;;;;;;;;;;5052720;28;20632;-79
2023/03/11 10:03:35;;;;;;;26.90;18.93;;;;;;;;;;5074556;28;20172;-79
2023/03/11 10:06:05;;;;;;;21.60;16.00;;;;;;;;;;5064092;28;20196;-79
2023/03/11 10:08:58;;;;;;;19.97;14.40;;;;;;;;;;5058282;28;20209;-79
2023/03/11 10:11:44;;;;;;;17.50;13.23;;;;;;;;;;5057944;28;20271;-78
2023/03/11 10:14:13;;;;;;;14.80;11.53;;;;;;;;;;5080347;28;20187;-79
2023/03/11 10:16:48;;;;;;;11.87;10.50;;;;;;;;;;5071627;28;20235;-79
2023/03/11 10:19:21;;;;;;;10.23;9.13;;;;;;;;;;5084204;28;20238;-81
2023/03/11 10:21:57;;;;;;;9.03;8.10;;;;;;;;;;5089863;28;20243;-79
2023/03/11 10:24:29;;;;;;;8.93;7.77;;;;;;;;;;5089136;28;20178;-79
2023/03/11 10:26:58;;;;;;;9.90;8.43;;;;;;;;;;5083154;28;20183;-79
2023/03/11 10:29:27;;;;;;;9.33;8.43;;;;;;;;;;5085083;28;22758;-80
2023/03/11 10:31:53;;;;;;;11.23;9.07;;;;;;;;;;5086435;28;20197;-79
2023/03/11 10:34:29;;;;;;;10.70;9.03;;;;;;;;;;5086902;28;20180;-79
2023/03/11 10:36:59;;;;;;;10.17;9.17;;;;;;;;;;5088250;28;20187;-79
2023/03/11 10:39:25;;;;;;;10.13;9.13;;;;;;;;;;5089899;28;20222;-80
2023/03/11 10:41:56;;;;;;;12.30;10.50;;;;;;;;;;5087351;28;20743;-79
2023/03/11 10:44:30;;;;;;;12.43;10.10;;;;;;;;;;5081768;28;20226;-80
2023/03/11 10:46:56;;;;;;;13.80;11.73;;;;;;;;;;5088924;28;20233;-79
2023/03/11 10:49:22;;;;;;;14.27;12.87;;;;;;;;;;5088835;28;20204;-79
2023/03/11 10:51:50;;;;;;;14.80;13.30;;;;;;;;;;5091151;28;20183;-79
2023/03/11 10:54:25;;;;;;;17.20;15.50;;;;;;;;;;5086462;28;20595;-79
2023/03/11 10:56:54;;;;;;;17.60;15.60;;;;;;;;;;5087286;28;20233;-79
2023/03/11 10:59:25;;;;;;;15.50;14.00;;;;;;;;;;5087411;28;20561;-79
2023/03/11 11:02:00;;;;;;;13.30;12.07;;;;;;;;;;5087290;28;20192;-79
2023/03/11 11:04:29;;;;;;;14.37;12.97;;;;;;;;;;5089192;28;20266;-79
2023/03/11 11:06:55;;;;;;;14.37;12.97;;;;;;;;;;5092303;28;20284;-79
2023/03/11 11:09:23;;;;;;;11.43;10.23;;;;;;;;;;5087836;28;20638;-79
2023/03/11 11:12:03;;;;;;;10.13;9.23;;;;;;;;;;5085070;28;20532;-79
2023/03/11 11:14:49;;;;;;;9.77;8.77;;;;;;;;;;5084107;28;20188;-79
2023/03/11 11:17:17;;;;;;;8.07;7.37;;;;;;;;;;5087197;28;20180;-79
2023/03/11 11:19:44;;;;;;;9.60;8.60;;;;;;;;;;5092236;28;20196;-79
2023/03/11 11:22:13;;;;;;;8.20;7.40;;;;;;;;;;5112194;27;20228;-79
2023/03/11 11:24:43;;;;;;;10.07;8.97;;;;;;;;;;5089512;28;20714;-79
2023/03/11 11:27:19;;;;;;;8.50;7.70;;;;;;;;;;5089086;28;20271;-79
2023/03/11 11:29:47;;;;;;;8.93;8.13;;;;;;;;;;5084916;27;20344;-79
2023/03/11 11:32:26;;;;;;;11.40;8.70;;;;;;;;;;5109464;28;20219;-79
2023/03/11 11:35:10;;;;;;;9.27;8.40;;;;;;;;;;5108020;28;20225;-79
2023/03/11 11:37:38;;;;;;;10.23;9.23;;;;;;;;;;5102558;27;20195;-80
2023/03/11 11:40:18;;;;;;;9.27;8.37;;;;;;;;;;5107249;27;20199;-80
2023/03/11 11:42:55;;;;;;;10.03;9.03;;;;;;;;;;5087063;28;20875;-80
2023/03/11 11:45:38;;;;;;;9.73;8.83;;;;;;;;;;5101409;28;20192;-83
2023/03/11 11:48:14;;;;;;;11.13;9.27;;;;;;;;;;5098028;28;20223;-79
2023/03/11 11:50:45;;;;;;;9.23;8.33;;;;;;;;;;5088615;28;21458;-80
2023/03/11 11:53:20;;;;;;;9.90;8.90;;;;;;;;;;5076650;28;20229;-81
2023/03/11 11:55:48;;;;;;;10.73;9.67;;;;;;;;;;5102738;28;20279;-81
2023/03/11 11:58:14;;;;;;;10.77;9.77;;;;;;;;;;5089653;28;20597;-81
2023/03/11 12:00:40;;;;;;;10.27;8.50;;;;;;;;;;5088985;28;20516;-80
2023/03/11 12:03:24;;;;;;;10.30;9.07;;;;;;;;;;5083539;28;20179;-80
2023/03/11 12:05:50;;;;;;;10.53;9.40;;;;;;;;;;5085105;28;20184;-81
2023/03/11 12:08:26;;;;;;;9.40;8.40;;;;;;;;;;5087441;28;20183;-81
2023/03/11 12:10:58;;;;;;;12.30;9.07;;;;;;;;;;5102156;28;20195;-81
2023/03/11 12:13:27;;;;;;;10.10;9.03;;;;;;;;;;5087371;27;20175;-82
2023/03/11 12:16:10;;;;;;;12.27;10.83;;;;;;;;;;5090096;28;20199;-81
2023/03/11 12:18:57;;;;;;;12.83;10.53;;;;;;;;;;5086251;28;20225;-81
2023/03/11 12:21:50;;;;;;;14.50;11.57;;;;;;;;;;5082389;28;20194;-81
2023/03/11 12:24:16;;;;;;;12.50;11.20;;;;;;;;;;5098285;28;20202;-81
2023/03/11 12:26:45;;;;;;;11.70;10.40;;;;;;;;;;5088481;28;20232;-80
2023/03/11 12:29:31;;;;;;;15.23;12.77;;;;;;;;;;5084575;28;20584;-80
2023/03/11 12:31:59;;;;;;;13.43;11.80;;;;;;;;;;5114230;27;20706;-81
2023/03/11 12:34:27;;;;;;;12.93;11.43;;;;;;;;;;5109393;28;20187;-81
2023/03/11 12:36:55;;;;;;;14.97;11.40;;;;;;;;;;5086759;28;20180;-81
2023/03/11 12:39:21;;;;;;;21.10;13.70;;;;;;;;;;5103003;28;20612;-81
2023/03/11 12:41:47;;;;;;;13.97;12.10;;;;;;;;;;5080821;28;20187;-80
2023/03/11 12:44:22;;;;;;;17.40;12.30;;;;;;;;;;5089527;28;20192;-81
2023/03/11 12:46:59;;;;;;;18.47;14.27;;;;;;;;;;5089743;28;20267;-81
2023/03/11 12:49:31;;;;;;;14.57;12.50;;;;;;;;;;5092093;28;20207;-80
2023/03/11 12:52:02;;;;;;;12.23;10.90;;;;;;;;;;5095317;28;20192;-81
2023/03/11 12:54:32;;;;;;;15.70;13.30;;;;;;;;;;5105806;28;20653;-81
2023/03/11 12:57:02;;;;;;;15.13;12.37;;;;;;;;;;5085552;28;20202;-81
2023/03/11 12:59:37;;;;;;;15.70;13.83;;;;;;;;;;5088686;28;20657;-81
2023/03/11 13:02:06;;;;;;;16.37;14.30;;;;;;;;;;5087812;28;20192;-82
2023/03/11 13:04:32;;;;;;;16.07;13.00;;;;;;;;;;5098813;28;20237;-81
2023/03/11 13:07:24;;;;;;;14.53;13.00;;;;;;;;;;5088287;28;20200;-82
2023/03/11 13:10:09;;;;;;;20.53;16.90;;;;;;;;;;5104032;28;20301;-81
2023/03/11 13:12:45;;;;;;;20.50;16.83;;;;;;;;;;5092440;28;20183;-80
2023/03/11 13:15:20;;;;;;;20.97;18.57;;;;;;;;;;5079391;28;20543;-81
2023/03/11 13:18:15;;;;;;;21.80;18.77;;;;;;;;;;5106849;28;20242;-81
2023/03/11 13:20:41;;;;;;;20.87;18.43;;;;;;;;;;5077590;28;20218;-81
2023/03/11 13:23:13;;;;;;;19.83;17.27;;;;;;;;;;5106471;28;20578;-81
2023/03/11 13:25:48;;;;;;;17.03;14.57;;;;;;;;;;5095813;28;20659;-81
2023/03/11 13:28:14;;;;;;;17.83;15.50;;;;;;;;;;5113980;28;20255;-81
2023/03/11 13:30:46;;;;;;;20.97;17.43;;;;;;;;;;5094947;28;20680;-80
2023/03/11 13:33:19;;;;;;;17.90;15.13;;;;;;;;;;5111300;28;20200;-82
2023/03/11 13:36:00;;;;;;;18.23;16.23;;;;;;;;;;5094357;28;20843;-81
2023/03/11 13:38:44;;;;;;;17.20;15.40;;;;;;;;;;5111407;27;20179;-81
2023/03/11 13:41:21;;;;;;;16.97;14.53;;;;;;;;;;5098463;28;20218;-81
2023/03/11 13:43:49;;;;;;;20.13;16.20;;;;;;;;;;5113524;28;20676;-80
2023/03/11 13:46:37;;;;;;;19.20;15.87;;;;;;;;;;5091717;28;20179;-81
2023/03/11 13:49:05;;;;;;;18.50;14.00;;;;;;;;;;5100967;28;20206;-81
2023/03/11 13:51:41;;;;;;;22.03;15.07;;;;;;;;;;5092610;28;20246;-81
2023/03/11 13:54:18;;;;;;;19.20;14.83;;;;;;;;;;5095104;28;20191;-81
2023/03/11 13:56:48;;;;;;;18.97;13.70;;;;;;;;;;5110376;28;20182;-81
2023/03/11 13:59:26;;;;;;;17.77;13.53;;;;;;;;;;5092667;28;20196;-82
2023/03/11 14:01:53;;;;;;;21.10;16.20;;;;;;;;;;5094519;28;20179;-82
2023/03/11 14:04:23;;;;;;;16.87;14.77;;;;;;;;;;5086310;28;20190;-83
2023/03/11 14:06:50;;;;;;;18.77;14.70;;;;;;;;;;5112430;27;20186;-81
2023/03/11 14:09:20;;;;;;;17.67;13.63;;;;;;;;;;5100147;27;20206;-81
2023/03/11 14:11:47;;;;;;;16.97;13.33;;;;;;;;;;5092835;28;20191;-80
2023/03/11 14:14:36;;;;;;;16.40;14.00;;;;;;;;;;5095696;28;20175;-80
2023/03/11 14:17:03;;;;;;;17.63;14.20;;;;;;;;;;5078875;28;20226;-81
2023/03/11 14:19:29;;;;;;;16.00;11.70;;;;;;;;;;5094504;28;20226;-81
2023/03/11 14:21:55;;;;;;;12.73;11.10;;;;;;;;;;5101428;28;20195;-81
2023/03/11 14:24:23;;;;;;;14.53;11.63;;;;;;;;;;5109031;28;20233;-80
2023/03/11 14:26:53;;;;;;;13.80;10.30;;;;;;;;;;5102009;28;20187;-80
2023/03/11 14:29:22;;;;;;;12.00;10.00;;;;;;;;;;5109804;28;20334;-80
2023/03/11 14:31:48;;;;;;;12.93;9.53;;;;;;;;;;5102320;27;20633;-82
2023/03/11 14:34:18;;;;;;;13.13;10.00;;;;;;;;;;5112403;27;20191;-80
2023/03/11 14:36:51;;;;;;;7.37;6.40;;;;;;;;;;5102780;27;20187;-82
2023/03/11 14:39:22;;;;;;;11.53;7.77;;;;;;;;;;5087870;28;20192;-82
2023/03/11 14:41:49;;;;;;;7.87;7.13;;;;;;;;;;5083373;28;20283;-81
2023/03/11 14:44:15;;;;;;;11.00;7.30;;;;;;;;;;5105596;27;20184;-82
2023/03/11 14:46:43;;;;;;;11.20;7.87;;;;;;;;;;5079933;28;20646;-81
2023/03/11 14:49:15;;;;;;;10.03;7.57;;;;;;;;;;5085072;28;20215;-81